createdAt,value
2018-10-07T00:01:58.251Z,14.95
2018-10-07T00:04:47.354Z,14.85
2018-10-07T00:07:37.834Z,14.78
2018-10-07T00:10:25.812Z,14.73
2018-10-07T00:13:14.509Z,14.67
2018-10-07T00:16:01.995Z,14.61
2018-10-07T00:18:49.875Z,15.23
2018-10-07T00:21:36.890Z,14.77
2018-10-07T00:24:26.188Z,14.65
2018-10-07T00:27:14.722Z,14.58
2018-10-07T00:36:16.291Z,14.37
2018-10-07T00:39:04.410Z,14.31
2018-10-07T00:41:52.537Z,14.25
2018-10-07T00:44:40.302Z,14.86
2018-10-07T00:50:34.204Z,14.23
2018-10-07T00:53:21.849Z,14.15
2018-10-07T00:56:09.660Z,14.08
2018-10-07T00:58:57.048Z,14.02
2018-10-07T01:01:45.781Z,13.98
2018-10-07T01:04:33.755Z,13.90
2018-10-07T01:07:21.456Z,13.82
2018-10-07T01:10:09.458Z,14.45
2018-10-07T01:12:57.829Z,13.91
2018-10-07T01:15:45.546Z,13.78
2018-10-07T01:21:39.576Z,13.62
2018-10-07T01:24:27.125Z,13.57
2018-10-07T01:27:14.815Z,13.49
2018-10-07T01:30:03.049Z,13.42
2018-10-07T01:32:50.978Z,13.35
2018-10-07T01:35:38.179Z,13.27
2018-10-07T01:41:49.224Z,13.37
2018-10-07T01:44:36.932Z,14.00
2018-10-07T01:47:24.498Z,14.19
2018-10-07T01:50:11.843Z,14.33
2018-10-07T01:53:00.166Z,13.80
2018-10-07T01:55:47.371Z,13.69
2018-10-07T01:58:34.845Z,13.65
2018-10-07T02:01:22.183Z,13.61
2018-10-07T02:04:11.158Z,13.58
2018-10-07T02:06:59.959Z,13.56
2018-10-07T02:09:47.933Z,13.56
2018-10-07T02:15:44.341Z,13.54
2018-10-07T02:18:32.263Z,13.52
2018-10-07T02:21:19.829Z,14.20
2018-10-07T02:24:08.694Z,13.73
2018-10-07T02:26:56.771Z,13.66
2018-10-07T02:29:44.353Z,13.63
2018-10-07T02:32:32.007Z,13.64
2018-10-07T02:35:19.333Z,13.65
2018-10-07T02:38:07.218Z,13.66
2018-10-07T02:40:54.698Z,13.64
2018-10-07T02:43:43.849Z,13.61
2018-10-07T02:46:31.866Z,13.58
2018-10-07T02:49:19.602Z,13.56
2018-10-07T02:52:06.943Z,13.52
2018-10-07T02:54:55.928Z,13.51
2018-10-07T02:57:43.225Z,13.51
2018-10-07T03:00:30.758Z,13.50
2018-10-07T03:03:18.364Z,13.49
2018-10-07T03:06:07.693Z,14.17
2018-10-07T03:08:55.375Z,13.72
2018-10-07T03:11:43.203Z,13.61
2018-10-07T03:14:30.911Z,13.54
2018-10-07T03:17:19.075Z,13.52
2018-10-07T03:20:06.739Z,14.17
2018-10-07T03:22:54.241Z,13.73
2018-10-07T03:25:42.496Z,14.29
2018-10-07T03:28:29.961Z,13.79
2018-10-07T03:31:18.489Z,13.68
2018-10-07T03:34:05.680Z,13.61
2018-10-07T03:36:53.197Z,13.55
2018-10-07T03:39:40.581Z,13.50
2018-10-07T03:42:35.229Z,13.44
2018-10-07T03:45:22.721Z,13.38
2018-10-07T03:48:18.539Z,13.98
2018-10-07T03:51:06.213Z,13.48
2018-10-07T03:54:02.816Z,13.33
2018-10-07T03:56:50.027Z,13.19
2018-10-07T03:59:39.102Z,13.80
2018-10-07T04:02:26.385Z,13.28
2018-10-07T04:05:13.715Z,13.17
2018-10-07T04:08:00.907Z,13.10
2018-10-07T04:10:48.442Z,13.73
2018-10-07T04:13:36.302Z,13.23
2018-10-07T04:16:23.983Z,13.10
2018-10-07T04:19:12.199Z,13.04
2018-10-07T04:21:59.632Z,13.66
2018-10-07T04:24:47.509Z,13.17
2018-10-07T04:27:35.067Z,13.04
2018-10-07T04:33:31.842Z,12.84
2018-10-07T04:36:23.025Z,12.78
2018-10-07T04:45:24.356Z,13.12
2018-10-07T04:48:12.028Z,13.30
2018-10-07T04:50:59.863Z,13.44
2018-10-07T04:53:47.272Z,13.60
2018-10-07T04:56:35.227Z,13.74
2018-10-07T04:59:22.288Z,13.88
2018-10-07T05:02:09.471Z,14.00
2018-10-07T05:11:10.859Z,14.27
2018-10-07T05:13:58.056Z,14.90
2018-10-07T05:16:45.880Z,14.62
2018-10-07T05:19:33.515Z,15.24
2018-10-07T05:22:21.334Z,14.88
2018-10-07T05:25:09.202Z,15.45
2018-10-07T05:28:11.813Z,15.06
2018-10-07T05:31:19.323Z,15.64
2018-10-07T05:34:06.411Z,15.81
2018-10-07T05:36:53.898Z,15.32
2018-10-07T05:39:41.110Z,15.20
2018-10-07T05:42:28.853Z,15.14
2018-10-07T05:45:23.845Z,15.07
2018-10-07T05:48:11.768Z,15.05
2018-10-07T05:51:01.507Z,15.71
2018-10-07T05:53:48.874Z,15.88
2018-10-07T05:56:36.323Z,15.37
2018-10-07T05:59:23.429Z,15.25
2018-10-07T06:02:10.669Z,15.19
2018-10-07T06:04:57.806Z,15.18
2018-10-07T06:07:45.513Z,15.18
2018-10-07T06:10:33.018Z,15.17
2018-10-07T06:16:28.026Z,15.23
2018-10-07T06:19:15.606Z,15.29
2018-10-07T06:22:03.601Z,16.06
2018-10-07T06:24:51.391Z,15.62
2018-10-07T06:27:39.295Z,16.31
2018-10-07T06:30:26.880Z,15.85
2018-10-07T06:33:14.696Z,15.77
2018-10-07T06:36:02.056Z,15.74
2018-10-07T06:38:49.335Z,15.74
2018-10-07T06:41:36.599Z,15.75
2018-10-07T06:44:39.049Z,15.76
2018-10-07T06:47:26.381Z,15.79
2018-10-07T06:50:13.843Z,15.78
2018-10-07T06:53:01.010Z,15.82
2018-10-07T06:55:48.617Z,15.79
2018-10-07T06:58:36.306Z,15.83
2018-10-07T07:01:24.458Z,15.86
2018-10-07T07:04:11.927Z,15.84
2018-10-07T07:07:08.765Z,15.85
2018-10-07T07:09:56.424Z,15.86
2018-10-07T07:12:44.235Z,15.89
2018-10-07T07:15:39.617Z,15.95
2018-10-07T07:18:31.794Z,16.00
2018-10-07T07:21:18.843Z,15.97
2018-10-07T07:24:06.181Z,16.01
2018-10-07T07:26:58.042Z,16.01
2018-10-07T07:29:45.288Z,16.02
2018-10-07T07:32:32.983Z,16.05
2018-10-07T07:35:20.629Z,16.77
2018-10-07T07:38:08.621Z,16.24
2018-10-07T07:41:04.058Z,16.93
2018-10-07T07:43:52.331Z,16.39
2018-10-07T07:52:53.396Z,16.34
2018-10-07T07:58:47.619Z,16.44
2018-10-07T08:01:35.465Z,16.52
2018-10-07T08:04:23.456Z,16.54
2018-10-07T08:07:20.164Z,16.52
2018-10-07T08:10:18.191Z,16.48
2018-10-07T08:13:06.143Z,16.45
2018-10-07T08:15:53.621Z,16.48
2018-10-07T08:21:47.729Z,16.70
2018-10-07T08:24:35.369Z,17.47
2018-10-07T08:27:22.767Z,16.93
2018-10-07T08:30:09.975Z,16.78
2018-10-07T08:32:57.782Z,16.65
2018-10-07T08:38:51.683Z,16.21
2018-10-07T08:41:39.136Z,16.04
2018-10-07T08:44:28.444Z,15.71
2018-10-07T08:47:21.201Z,15.51
2018-10-07T08:50:08.851Z,16.28
2018-10-07T08:52:57.096Z,15.55
2018-10-07T08:55:45.595Z,15.33
2018-10-07T08:58:33.828Z,15.21
2018-10-07T09:01:20.995Z,15.34
2018-10-07T09:04:09.537Z,15.54
2018-10-07T09:06:56.664Z,15.65
2018-10-07T09:09:44.268Z,15.74
2018-10-07T09:12:31.912Z,15.70
2018-10-07T09:15:18.992Z,15.68
2018-10-07T09:18:08.315Z,16.47
2018-10-07T09:20:56.667Z,15.72
2018-10-07T09:26:50.588Z,14.98
2018-10-07T09:29:38.996Z,14.91
2018-10-07T09:32:26.610Z,14.91
2018-10-07T09:35:13.715Z,14.88
2018-10-07T09:38:11.281Z,14.88
2018-10-07T09:40:58.970Z,14.90
2018-10-07T09:43:46.995Z,15.84
2018-10-07T09:46:35.183Z,15.29
2018-10-07T09:49:23.303Z,15.31
2018-10-07T09:52:15.243Z,15.35
2018-10-07T09:55:03.342Z,15.32
2018-10-07T09:57:50.890Z,15.40
2018-10-07T10:00:38.407Z,15.55
2018-10-07T10:03:26.271Z,15.65
2018-10-07T10:06:14.627Z,15.77
2018-10-07T10:09:02.485Z,15.75
2018-10-07T10:15:04.667Z,15.50
2018-10-07T10:17:54.454Z,15.43
2018-10-07T10:20:43.484Z,15.38
2018-10-07T10:26:43.938Z,15.66
2018-10-07T10:29:32.901Z,15.59
2018-10-07T10:32:26.950Z,16.61
2018-10-07T10:38:23.072Z,15.82
2018-10-07T10:41:27.500Z,15.71
2018-10-07T10:44:17.634Z,15.71
2018-10-07T10:47:05.612Z,15.68
2018-10-07T10:56:09.496Z,15.59
2018-10-07T10:58:57.472Z,15.53
2018-10-07T11:04:55.567Z,15.86
2018-10-07T11:07:43.171Z,15.69
2018-10-07T11:10:31.073Z,15.73
2018-10-07T11:13:21.698Z,15.69
2018-10-07T11:16:11.260Z,15.70
2018-10-07T11:19:07.390Z,15.74
2018-10-07T11:21:54.860Z,15.83
2018-10-07T11:24:44.555Z,15.90
2018-10-07T11:30:41.296Z,15.68
2018-10-07T11:33:29.253Z,15.56
2018-10-07T11:36:18.138Z,15.34
2018-10-07T11:39:18.955Z,15.25
2018-10-07T11:42:18.365Z,15.28
2018-10-07T11:45:16.916Z,15.28
2018-10-07T11:48:11.322Z,16.34
2018-10-07T11:54:10.110Z,15.48
2018-10-07T11:56:57.465Z,15.41
2018-10-07T11:59:44.897Z,15.25
2018-10-07T12:02:34.121Z,16.22
2018-10-07T12:05:23.850Z,16.37
2018-10-07T12:11:21.275Z,15.22
2018-10-07T12:14:10.490Z,15.11
2018-10-07T12:17:03.098Z,14.97
2018-10-07T12:23:02.488Z,14.90
2018-10-07T12:25:51.906Z,14.88
2018-10-07T12:28:39.359Z,14.90
2018-10-07T12:31:26.925Z,15.97
2018-10-07T12:37:21.461Z,15.13
2018-10-07T12:40:10.467Z,15.91
2018-10-07T12:43:01.020Z,14.83
2018-10-07T12:45:48.772Z,14.72
2018-10-07T12:48:42.745Z,14.63
2018-10-07T12:51:29.865Z,14.60
2018-10-07T12:57:28.998Z,14.57
2018-10-07T13:00:16.113Z,15.56
2018-10-07T13:03:03.630Z,14.81
2018-10-07T13:05:51.484Z,14.70
2018-10-07T13:08:39.047Z,14.54
2018-10-07T13:11:26.372Z,14.48
2018-10-07T13:14:14.746Z,15.49
2018-10-07T13:17:02.130Z,14.84
2018-10-07T13:19:49.947Z,15.72
2018-10-07T13:22:45.197Z,14.99
2018-10-07T13:25:33.812Z,15.00
2018-10-07T13:28:25.622Z,15.01
2018-10-07T13:31:13.874Z,15.09
2018-10-07T13:34:01.196Z,15.13
2018-10-07T13:36:48.678Z,15.09
2018-10-07T13:42:42.496Z,16.15
2018-10-07T13:48:36.768Z,15.27
2018-10-07T13:51:24.917Z,15.36
2018-10-07T13:54:12.177Z,15.31
2018-10-07T13:56:59.294Z,16.26
2018-10-07T13:59:46.844Z,15.55
2018-10-07T14:02:41.886Z,15.46
2018-10-07T14:11:48.501Z,15.20
2018-10-07T14:14:36.078Z,15.06
2018-10-07T14:17:23.286Z,15.97
2018-10-07T14:20:10.660Z,15.33
2018-10-07T14:23:00.177Z,15.20
2018-10-07T14:25:47.230Z,15.09
2018-10-07T14:28:34.309Z,15.03
2018-10-07T14:31:21.935Z,14.92
2018-10-07T14:34:10.908Z,14.87
2018-10-07T14:36:58.667Z,14.86
2018-10-07T14:39:47.769Z,14.77
2018-10-07T14:42:40.205Z,14.67
2018-10-07T14:45:27.758Z,14.64
2018-10-07T14:48:15.077Z,15.51
2018-10-07T14:51:02.196Z,14.81
2018-10-07T14:53:49.660Z,14.71
2018-10-07T14:59:43.965Z,14.44
2018-10-07T15:02:31.243Z,14.36
2018-10-07T15:05:19.116Z,14.32
2018-10-07T15:08:06.542Z,14.36
2018-10-07T15:10:53.922Z,14.52
2018-10-07T15:13:41.180Z,14.71
2018-10-07T15:19:37.325Z,15.71
2018-10-07T15:22:24.941Z,15.74
2018-10-07T15:25:11.955Z,15.69
2018-10-07T15:27:59.976Z,14.80
2018-10-07T15:30:49.763Z,15.40
2018-10-07T15:33:36.765Z,14.61
2018-10-07T15:36:24.565Z,14.31
2018-10-07T15:39:12.135Z,14.91
2018-10-07T15:41:59.611Z,14.20
2018-10-07T15:47:54.493Z,14.75
2018-10-07T15:50:42.058Z,14.11
2018-10-07T15:53:29.251Z,13.94
2018-10-07T15:59:29.196Z,13.69
2018-10-07T16:05:23.632Z,13.35
2018-10-07T16:08:11.094Z,13.95
2018-10-07T16:11:00.188Z,13.28
2018-10-07T16:13:47.291Z,13.85
2018-10-07T16:16:34.713Z,13.16
2018-10-07T16:19:22.777Z,12.92
2018-10-07T16:22:09.850Z,12.78
2018-10-07T16:28:03.191Z,12.43
2018-10-07T16:30:56.805Z,13.06
2018-10-07T16:33:45.771Z,12.39
2018-10-07T16:36:33.075Z,12.15
2018-10-07T16:39:20.433Z,12.76
2018-10-07T16:45:14.916Z,11.85
2018-10-07T16:48:02.572Z,11.68
2018-10-07T16:50:49.734Z,11.54
2018-10-07T16:53:37.212Z,12.12
2018-10-07T16:59:31.365Z,11.30
2018-10-07T17:02:21.853Z,11.89
2018-10-07T17:05:09.152Z,11.29
2018-10-07T17:11:03.993Z,10.91
2018-10-07T17:13:51.927Z,10.80
2018-10-07T17:16:40.584Z,10.67
2018-10-07T17:19:28.046Z,10.54
2018-10-07T17:22:19.376Z,11.13
2018-10-07T17:28:13.151Z,10.31
2018-10-07T17:31:02.757Z,10.19
2018-10-07T17:33:51.192Z,10.09
2018-10-07T17:36:38.479Z,9.99
2018-10-07T17:39:25.708Z,9.93
2018-10-07T17:42:13.433Z,9.87
2018-10-07T17:45:16.157Z,9.80
2018-10-07T17:48:04.553Z,9.73
2018-10-07T17:50:51.792Z,9.67
2018-10-07T17:53:39.193Z,9.63
2018-10-07T17:56:27.612Z,9.58
2018-10-07T17:59:15.209Z,9.54
2018-10-07T18:02:02.185Z,9.50
2018-10-07T18:04:49.767Z,9.48
2018-10-07T18:07:37.259Z,9.43
2018-10-07T18:10:25.419Z,9.39
2018-10-07T18:13:28.881Z,9.34
2018-10-07T18:16:20.578Z,9.29
2018-10-07T18:22:14.809Z,9.92
2018-10-07T18:25:01.942Z,9.42
2018-10-07T18:34:04.999Z,9.09
2018-10-07T18:36:54.313Z,9.02
2018-10-07T18:39:41.466Z,8.98
2018-10-07T18:42:29.018Z,8.94
2018-10-07T18:45:16.057Z,8.90
2018-10-07T18:48:03.824Z,8.83
2018-10-07T18:50:51.998Z,8.77
2018-10-07T18:53:39.953Z,8.71
2018-10-07T18:56:27.890Z,8.65
2018-10-07T18:59:16.240Z,8.60
2018-10-07T19:02:10.319Z,8.59
2018-10-07T19:04:58.185Z,8.56
2018-10-07T19:07:47.384Z,8.51
2018-10-07T19:10:34.902Z,8.47
2018-10-07T19:13:23.022Z,9.12
2018-10-07T19:16:12.789Z,9.31
2018-10-07T19:19:00.880Z,8.76
2018-10-07T19:21:48.241Z,8.63
2018-10-07T19:24:37.381Z,8.56
2018-10-07T19:27:32.547Z,9.17
2018-10-07T19:30:21.103Z,8.63
2018-10-07T19:33:09.092Z,8.48
2018-10-07T19:35:56.484Z,8.37
2018-10-07T19:41:50.600Z,8.15
2018-10-07T19:44:37.724Z,8.06
2018-10-07T19:47:26.103Z,8.00
2018-10-07T19:50:13.419Z,7.95
2018-10-07T19:53:02.759Z,7.90
2018-10-07T19:55:50.314Z,7.86
2018-10-07T19:58:39.984Z,7.84
2018-10-07T20:01:30.117Z,7.83
2018-10-07T20:04:19.607Z,7.81
2018-10-07T20:07:14.634Z,7.79
2018-10-07T20:10:02.094Z,7.77
2018-10-07T20:12:49.714Z,7.75
2018-10-07T20:15:38.201Z,7.74
2018-10-07T20:18:25.658Z,8.33
2018-10-07T20:21:18.744Z,7.87
2018-10-07T20:24:06.400Z,7.75
2018-10-07T20:26:54.510Z,7.66
2018-10-07T20:32:51.041Z,7.70
2018-10-07T20:35:44.624Z,7.57
2018-10-07T20:38:44.539Z,7.53
2018-10-07T20:41:50.457Z,7.47
2018-10-07T20:44:51.843Z,7.43
2018-10-07T20:47:43.349Z,7.39
2018-10-07T20:50:31.284Z,8.01
2018-10-07T20:53:18.959Z,7.55
2018-10-07T20:56:06.613Z,7.44
2018-10-07T20:58:54.420Z,7.35
2018-10-07T21:01:41.910Z,7.28
2018-10-07T21:04:29.496Z,7.89
2018-10-07T21:07:17.246Z,7.42
2018-10-07T21:10:04.584Z,7.30
2018-10-07T21:12:51.670Z,7.20
2018-10-07T21:15:39.068Z,7.12
2018-10-07T21:18:27.840Z,7.03
2018-10-07T21:21:15.137Z,6.95
2018-10-07T21:24:02.655Z,6.86
2018-10-07T21:26:49.979Z,6.76
2018-10-07T21:29:37.592Z,6.68
2018-10-07T21:32:25.810Z,6.60
2018-10-07T21:35:13.029Z,6.53
2018-10-07T21:38:02.336Z,6.45
2018-10-07T21:40:49.671Z,6.39
2018-10-07T21:43:37.747Z,6.34
2018-10-07T21:46:25.300Z,6.31
2018-10-07T21:49:12.493Z,6.27
2018-10-07T21:52:01.026Z,6.23
2018-10-07T21:54:49.675Z,6.19
2018-10-07T21:57:37.113Z,6.14
2018-10-07T22:00:24.698Z,6.10
2018-10-07T22:03:13.476Z,6.07
2018-10-07T22:06:00.805Z,6.04
2018-10-07T22:11:55.114Z,6.00
2018-10-07T22:14:43.188Z,5.98
2018-10-07T22:17:34.034Z,5.97
2018-10-07T22:20:23.443Z,5.93
2018-10-07T22:23:11.308Z,5.87
2018-10-07T22:26:02.781Z,5.85
2018-10-07T22:28:52.729Z,5.81
2018-10-07T22:31:42.922Z,5.74
2018-10-07T22:34:32.187Z,5.70
2018-10-07T22:37:20.313Z,5.65
2018-10-07T22:40:08.077Z,5.60
2018-10-07T22:42:56.201Z,5.55
2018-10-07T22:45:43.881Z,5.53
2018-10-07T22:48:35.250Z,5.53
2018-10-07T22:51:22.860Z,5.51
2018-10-07T22:54:10.675Z,5.49
2018-10-07T22:57:02.138Z,5.45
2018-10-07T23:02:56.098Z,5.39
2018-10-07T23:05:46.479Z,5.36
2018-10-07T23:08:36.207Z,5.34
2018-10-07T23:11:24.225Z,5.31
2018-10-07T23:14:12.295Z,5.29
2018-10-07T23:17:03.939Z,5.27
2018-10-07T23:19:53.352Z,5.22
2018-10-07T23:22:43.001Z,5.17
2018-10-07T23:25:33.098Z,5.18
2018-10-07T23:28:20.136Z,5.85
2018-10-07T23:31:09.677Z,5.39
2018-10-07T23:34:02.616Z,5.29
2018-10-07T23:36:50.283Z,5.25
2018-10-07T23:39:43.660Z,5.24
2018-10-07T23:42:38.271Z,5.24
2018-10-07T23:45:34.247Z,5.23
2018-10-07T23:48:21.836Z,5.22
2018-10-07T23:51:10.034Z,5.22
2018-10-07T23:53:57.745Z,5.21
2018-10-07T23:56:48.655Z,5.20
2018-10-07T23:59:39.389Z,5.18
